createdAt,value
2019-01-16T00:00:29.643Z,28.50
2019-01-16T00:03:22.602Z,30.47
2019-01-16T00:06:05.346Z,33.80
2019-01-16T00:08:50.892Z,23.97
2019-01-16T00:11:40.290Z,34.93
2019-01-16T00:14:25.694Z,26.57
2019-01-16T00:17:15.926Z,29.83
2019-01-16T00:20:05.789Z,31.10
2019-01-16T00:22:57.391Z,28.20
2019-01-16T00:25:44.282Z,28.87
2019-01-16T00:28:29.957Z,29.67
2019-01-16T00:31:16.910Z,29.03
2019-01-16T00:33:54.930Z,35.67
2019-01-16T00:36:46.563Z,25.97
2019-01-16T00:39:32.190Z,26.30
2019-01-16T00:42:35.158Z,27.73
2019-01-16T00:45:22.326Z,26.67
2019-01-16T00:48:02.626Z,28.33
2019-01-16T00:50:48.243Z,27.10
2019-01-16T00:53:35.225Z,23.23
2019-01-16T00:56:20.473Z,30.83
2019-01-16T00:59:06.237Z,27.03
2019-01-16T01:01:56.112Z,22.07
2019-01-16T01:04:36.162Z,26.27
2019-01-16T01:07:14.561Z,27.60
2019-01-16T01:10:04.468Z,28.50
2019-01-16T01:12:39.640Z,24.37
2019-01-16T01:15:36.381Z,26.87
2019-01-16T01:18:22.448Z,39.67
2019-01-16T01:21:08.374Z,28.13
2019-01-16T01:23:59.493Z,24.47
2019-01-16T01:26:46.452Z,31.43
2019-01-16T01:29:23.829Z,23.27
2019-01-16T01:32:13.853Z,24.83
2019-01-16T01:35:19.649Z,29.70
2019-01-16T01:38:05.124Z,26.80
2019-01-16T01:40:50.997Z,23.53
2019-01-16T01:43:43.860Z,31.53
2019-01-16T01:46:29.908Z,26.00
2019-01-16T01:49:08.761Z,27.80
2019-01-16T01:52:10.541Z,31.47
2019-01-16T01:54:56.940Z,29.60
2019-01-16T01:57:46.816Z,32.73
2019-01-16T02:00:39.957Z,29.87
2019-01-16T02:03:32.872Z,29.77
2019-01-16T02:06:23.099Z,29.17
2019-01-16T02:09:07.892Z,27.90
2019-01-16T02:11:57.753Z,28.40
2019-01-16T02:14:53.996Z,28.40
2019-01-16T02:17:39.630Z,27.80
2019-01-16T02:20:29.288Z,25.43
2019-01-16T02:23:15.481Z,32.40
2019-01-16T02:26:01.658Z,28.63
2019-01-16T02:28:39.479Z,27.47
2019-01-16T02:31:32.015Z,29.90
2019-01-16T02:34:22.160Z,31.07
2019-01-16T02:37:09.063Z,25.17
2019-01-16T02:39:59.954Z,27.73
2019-01-16T02:42:47.401Z,28.47
2019-01-16T02:45:32.980Z,29.60
2019-01-16T02:48:14.601Z,25.20
2019-01-16T02:51:01.480Z,33.37
2019-01-16T02:53:42.314Z,31.63
2019-01-16T02:56:30.957Z,25.60
2019-01-16T02:59:16.317Z,25.97
2019-01-16T03:02:09.237Z,26.97
2019-01-16T03:04:59.233Z,27.07
2019-01-16T03:07:40.165Z,30.40
2019-01-16T03:10:23.861Z,31.53
2019-01-16T03:12:59.124Z,26.30
2019-01-16T03:15:58.406Z,29.93
2019-01-16T03:18:37.102Z,29.90
2019-01-16T03:21:22.513Z,30.63
2019-01-16T03:24:24.778Z,31.33
2019-01-16T03:27:20.308Z,34.93
2019-01-16T03:30:19.535Z,30.10
2019-01-16T03:33:05.266Z,32.53
2019-01-16T03:36:03.984Z,34.20
2019-01-16T03:38:53.705Z,33.10
2019-01-16T03:41:41.623Z,29.57
2019-01-16T03:44:40.377Z,30.90
2019-01-16T03:47:26.067Z,36.70
2019-01-16T03:50:20.566Z,35.43
2019-01-16T03:53:07.714Z,35.83
2019-01-16T03:55:48.297Z,30.20
2019-01-16T03:58:29.641Z,33.33
2019-01-16T04:01:17.198Z,34.13
2019-01-16T04:04:06.837Z,31.90
2019-01-16T04:06:53.774Z,33.10
2019-01-16T04:09:47.576Z,32.67
2019-01-16T04:12:32.815Z,32.63
2019-01-16T04:15:18.681Z,32.60
2019-01-16T04:18:08.220Z,32.33
2019-01-16T04:20:46.801Z,35.70
2019-01-16T04:23:24.965Z,30.10
2019-01-16T04:26:11.145Z,37.37
2019-01-16T04:28:44.854Z,36.17
2019-01-16T04:31:30.696Z,39.03
2019-01-16T04:34:17.807Z,34.37
2019-01-16T04:37:03.529Z,33.47
2019-01-16T04:39:59.671Z,34.57
2019-01-16T04:42:42.722Z,34.23
2019-01-16T04:45:47.814Z,33.00
2019-01-16T04:48:30.520Z,32.97
2019-01-16T04:51:17.427Z,31.43
2019-01-16T04:54:10.254Z,36.23
2019-01-16T04:56:49.781Z,32.67
2019-01-16T04:59:42.717Z,35.50
2019-01-16T05:02:35.970Z,29.80
2019-01-16T05:05:27.184Z,32.97
2019-01-16T05:08:12.711Z,33.07
2019-01-16T05:10:58.841Z,30.40
2019-01-16T05:13:35.869Z,29.10
2019-01-16T05:16:26.043Z,30.37
2019-01-16T05:19:12.776Z,29.33
2019-01-16T05:22:11.979Z,32.90
2019-01-16T05:25:04.805Z,28.07
2019-01-16T05:27:50.147Z,26.00
2019-01-16T05:30:35.891Z,26.50
2019-01-16T05:33:12.004Z,29.00
2019-01-16T05:35:58.109Z,26.13
2019-01-16T05:38:43.676Z,26.37
2019-01-16T05:41:29.066Z,25.50
2019-01-16T05:44:21.773Z,27.53
2019-01-16T05:47:04.728Z,24.83
2019-01-16T05:49:50.324Z,26.80
2019-01-16T05:52:39.921Z,25.07
2019-01-16T05:55:19.842Z,25.40
2019-01-16T05:58:02.861Z,26.80
2019-01-16T06:00:55.648Z,25.17
2019-01-16T06:03:40.233Z,24.27
2019-01-16T06:06:29.863Z,25.30
2019-01-16T06:09:17.200Z,25.10
2019-01-16T06:12:02.552Z,27.70
2019-01-16T06:14:58.449Z,24.63
2019-01-16T06:17:40.338Z,24.07
2019-01-16T06:20:35.167Z,23.87
2019-01-16T06:23:20.996Z,25.43
2019-01-16T06:25:59.657Z,26.17
2019-01-16T06:28:46.617Z,22.97
2019-01-16T06:31:33.189Z,21.93
2019-01-16T06:34:20.156Z,23.20
2019-01-16T06:36:54.951Z,23.37
2019-01-16T06:39:40.261Z,21.73
2019-01-16T06:42:25.884Z,21.57
2019-01-16T06:45:20.297Z,25.73
2019-01-16T06:48:18.960Z,20.90
2019-01-16T06:50:54.436Z,23.80
2019-01-16T06:53:39.940Z,21.17
2019-01-16T06:56:22.413Z,19.47
2019-01-16T06:59:08.556Z,21.73
2019-01-16T07:02:01.365Z,22.70
2019-01-16T07:04:41.740Z,21.63
2019-01-16T07:07:25.853Z,21.33
2019-01-16T07:10:07.051Z,22.90
2019-01-16T07:12:59.876Z,19.93
2019-01-16T07:15:38.048Z,19.83
2019-01-16T07:18:19.969Z,19.97
2019-01-16T07:21:18.755Z,18.27
2019-01-16T07:24:08.503Z,20.47
2019-01-16T07:26:58.387Z,20.20
2019-01-16T07:29:42.601Z,18.27
2019-01-16T07:32:35.353Z,18.20
2019-01-16T07:35:35.100Z,18.20
2019-01-16T07:38:20.066Z,19.20
2019-01-16T07:41:06.932Z,18.83
2019-01-16T07:43:49.114Z,20.90
2019-01-16T07:46:35.287Z,21.30
2019-01-16T07:49:25.002Z,20.30
2019-01-16T07:52:08.461Z,19.87
2019-01-16T07:54:53.956Z,18.87
2019-01-16T07:57:39.818Z,18.53
2019-01-16T08:00:44.660Z,21.43
2019-01-16T08:03:43.517Z,21.90
2019-01-16T08:06:30.409Z,19.83
2019-01-16T08:09:20.243Z,19.33
2019-01-16T08:12:05.876Z,19.73
2019-01-16T08:15:10.775Z,20.10
2019-01-16T08:17:56.181Z,21.07
2019-01-16T08:20:39.859Z,20.30
2019-01-16T08:23:26.825Z,22.67
2019-01-16T08:26:19.409Z,17.67
2019-01-16T08:29:04.633Z,17.70
2019-01-16T08:31:54.585Z,18.93
2019-01-16T08:34:59.416Z,20.67
2019-01-16T08:37:55.377Z,20.57
2019-01-16T08:40:48.308Z,19.13
2019-01-16T08:43:35.329Z,21.37
2019-01-16T08:46:22.350Z,22.03
2019-01-16T08:49:09.376Z,22.20
2019-01-16T08:51:54.778Z,20.60
2019-01-16T08:54:50.661Z,20.77
2019-01-16T08:57:33.830Z,20.53
2019-01-16T09:00:20.275Z,23.93
2019-01-16T09:03:15.814Z,22.00
2019-01-16T09:06:37.271Z,21.27
2019-01-16T09:09:26.162Z,27.47
2019-01-16T09:12:11.806Z,21.97
2019-01-16T09:14:57.702Z,20.63
2019-01-16T09:17:34.478Z,24.30
2019-01-16T09:20:23.347Z,22.47
2019-01-16T09:23:04.058Z,26.03
2019-01-16T09:25:53.922Z,30.47
2019-01-16T09:28:46.627Z,26.80
2019-01-16T09:31:33.641Z,23.63
2019-01-16T09:34:10.989Z,24.43
2019-01-16T09:40:01.364Z,25.43
2019-01-16T09:42:51.018Z,26.00
2019-01-16T09:45:40.722Z,24.73
2019-01-16T09:48:20.315Z,25.67
2019-01-16T09:51:01.748Z,22.67
2019-01-16T09:53:45.687Z,23.77
2019-01-16T09:56:31.202Z,24.40
2019-01-16T09:59:12.138Z,20.93
2019-01-16T10:02:13.932Z,22.43
2019-01-16T10:05:14.673Z,20.90
2019-01-16T10:08:05.793Z,19.50
2019-01-16T10:10:55.782Z,20.60
2019-01-16T10:13:36.183Z,20.40
2019-01-16T10:16:21.481Z,19.40
2019-01-16T10:19:01.735Z,20.90
2019-01-16T10:21:47.063Z,19.60
2019-01-16T10:24:32.860Z,21.20
2019-01-16T10:27:13.473Z,20.00
2019-01-16T10:29:59.030Z,20.33
2019-01-16T10:32:46.085Z,21.63
2019-01-16T10:35:33.221Z,20.90
2019-01-16T10:38:21.366Z,21.00
2019-01-16T10:41:10.942Z,22.80
2019-01-16T10:44:04.083Z,22.40
2019-01-16T10:47:03.045Z,21.27
2019-01-16T10:49:49.115Z,23.03
2019-01-16T10:52:48.304Z,20.20
2019-01-16T10:55:34.174Z,22.63
2019-01-16T10:58:22.496Z,20.67
2019-01-16T11:01:08.115Z,23.90
2019-01-16T11:03:53.807Z,20.63
2019-01-16T11:06:53.106Z,21.40
2019-01-16T11:09:43.942Z,21.47
2019-01-16T11:12:46.326Z,21.20
2019-01-16T11:15:37.380Z,21.30
2019-01-16T11:18:23.279Z,21.90
2019-01-16T11:21:14.275Z,19.33
2019-01-16T11:24:01.322Z,19.13
2019-01-16T11:26:58.821Z,19.27
2019-01-16T11:29:40.183Z,19.00
2019-01-16T11:32:27.311Z,16.77
2019-01-16T11:35:06.025Z,15.00
2019-01-16T11:37:58.911Z,16.17
2019-01-16T11:40:48.738Z,16.73
2019-01-16T11:43:37.737Z,14.40
2019-01-16T11:46:24.279Z,13.50
2019-01-16T11:49:11.678Z,14.60
2019-01-16T11:51:48.710Z,12.67
2019-01-16T11:54:35.729Z,12.83
2019-01-16T11:57:22.905Z,11.70
2019-01-16T12:00:11.793Z,11.17
2019-01-16T12:02:56.430Z,11.77
2019-01-16T12:05:43.396Z,11.50
2019-01-16T12:08:38.069Z,13.47
2019-01-16T12:11:23.727Z,11.50
2019-01-16T12:14:10.696Z,12.00
2019-01-16T12:16:57.825Z,12.07
2019-01-16T12:19:53.453Z,11.33
2019-01-16T12:22:40.565Z,10.60
2019-01-16T12:25:26.526Z,11.17
2019-01-16T12:28:16.230Z,11.70
2019-01-16T12:30:58.295Z,11.03
2019-01-16T12:33:50.683Z,12.60
2019-01-16T12:36:43.269Z,11.80
2019-01-16T12:39:30.257Z,11.53
2019-01-16T12:42:16.076Z,10.80
2019-01-16T12:45:01.879Z,13.13
2019-01-16T12:47:51.690Z,11.70
2019-01-16T12:50:34.943Z,10.30
2019-01-16T12:53:24.715Z,9.70
2019-01-16T12:56:04.821Z,10.30
2019-01-16T12:59:10.292Z,10.53
2019-01-16T13:02:00.226Z,10.17
2019-01-16T13:04:51.752Z,9.97
2019-01-16T13:07:37.401Z,9.77
2019-01-16T13:10:31.839Z,33.57
2019-01-16T13:13:31.246Z,8.90
2019-01-16T13:16:14.908Z,8.30
2019-01-16T13:19:13.863Z,9.50
2019-01-16T13:22:05.714Z,8.47
2019-01-16T13:24:52.790Z,8.10
2019-01-16T13:27:54.898Z,10.27
2019-01-16T13:30:42.690Z,8.77
2019-01-16T13:33:32.669Z,9.67
2019-01-16T13:36:32.247Z,8.90
2019-01-16T13:39:37.306Z,9.00
2019-01-16T13:42:21.125Z,7.90
2019-01-16T13:45:01.834Z,8.00
2019-01-16T13:47:48.999Z,8.57
2019-01-16T13:50:32.886Z,8.17
2019-01-16T13:53:29.178Z,8.50
2019-01-16T13:56:10.551Z,8.57
2019-01-16T13:58:50.399Z,8.73
2019-01-16T14:01:49.433Z,9.60
2019-01-16T14:04:40.438Z,8.53
2019-01-16T14:07:21.435Z,8.10
2019-01-16T14:10:08.439Z,8.60
2019-01-16T14:12:45.618Z,8.73
2019-01-16T14:15:44.959Z,9.33
2019-01-16T14:18:37.931Z,10.03
2019-01-16T14:21:23.195Z,9.80
2019-01-16T14:24:09.460Z,10.93
2019-01-16T14:27:05.608Z,11.13
2019-01-16T14:29:55.192Z,10.07
2019-01-16T14:32:40.543Z,12.77
2019-01-16T14:35:45.892Z,10.17
2019-01-16T14:38:38.985Z,13.00
2019-01-16T14:41:25.471Z,11.90
2019-01-16T14:44:21.399Z,12.10
2019-01-16T14:47:07.353Z,10.80
2019-01-16T14:49:52.087Z,12.37
2019-01-16T14:52:41.811Z,11.07
2019-01-16T14:55:41.320Z,13.57
2019-01-16T14:58:26.014Z,11.97
2019-01-16T15:01:11.923Z,14.37
2019-01-16T15:04:04.767Z,13.53
2019-01-16T15:06:50.542Z,13.80
2019-01-16T15:09:37.643Z,13.03
2019-01-16T15:12:28.460Z,13.33
2019-01-16T15:15:21.430Z,13.90
2019-01-16T15:18:07.307Z,14.40
2019-01-16T15:20:53.068Z,15.90
2019-01-16T15:23:38.745Z,15.80
2019-01-16T15:26:25.707Z,16.57
2019-01-16T15:29:07.917Z,18.63
2019-01-16T15:31:47.668Z,17.20
2019-01-16T15:34:35.266Z,18.20
2019-01-16T15:37:21.342Z,19.43
2019-01-16T15:40:17.601Z,19.33
2019-01-16T15:43:04.698Z,19.80
2019-01-16T15:45:45.746Z,19.70
2019-01-16T15:48:31.462Z,19.80
2019-01-16T15:51:17.842Z,19.70
2019-01-16T15:54:23.948Z,31.10
2019-01-16T15:57:22.253Z,19.90
2019-01-16T16:00:21.702Z,16.33
2019-01-16T16:02:58.391Z,17.50
2019-01-16T16:05:51.290Z,16.77
2019-01-16T16:08:37.122Z,18.70
2019-01-16T16:11:26.651Z,30.73
2019-01-16T16:14:13.395Z,15.47
2019-01-16T16:16:52.754Z,17.20
2019-01-16T16:19:48.842Z,15.80
2019-01-16T16:22:54.242Z,17.40
2019-01-16T16:25:33.015Z,14.37
2019-01-16T16:28:20.225Z,13.20
2019-01-16T16:31:00.592Z,14.97
2019-01-16T16:33:53.738Z,21.20
2019-01-16T16:36:40.675Z,16.80
2019-01-16T16:39:33.877Z,18.60
2019-01-16T16:42:16.627Z,19.37
2019-01-16T16:45:02.229Z,13.07
2019-01-16T16:47:48.726Z,15.60
2019-01-16T16:50:34.623Z,14.83
2019-01-16T16:53:21.761Z,13.40
2019-01-16T16:56:07.009Z,13.93
2019-01-16T16:59:04.813Z,14.80
2019-01-16T17:02:10.523Z,13.30
2019-01-16T17:04:56.482Z,15.30
2019-01-16T17:07:46.455Z,12.73
2019-01-16T17:10:42.222Z,12.30
2019-01-16T17:13:27.926Z,12.00
2019-01-16T17:16:17.874Z,12.53
2019-01-16T17:18:56.721Z,13.00
2019-01-16T17:21:35.151Z,12.20
2019-01-16T17:24:16.098Z,15.60
2019-01-16T17:27:00.936Z,12.30
2019-01-16T17:29:46.625Z,16.50
2019-01-16T17:32:36.451Z,12.43
2019-01-16T17:35:14.549Z,14.83
2019-01-16T17:38:00.547Z,12.90
2019-01-16T17:40:50.533Z,13.30
2019-01-16T17:43:30.118Z,13.33
2019-01-16T17:46:22.551Z,13.07
2019-01-16T17:49:01.922Z,13.37
2019-01-16T17:51:47.939Z,13.57
2019-01-16T17:54:40.102Z,12.47
2019-01-16T17:57:27.130Z,13.60
2019-01-16T18:00:17.014Z,18.73
2019-01-16T18:02:53.458Z,17.27
2019-01-16T18:05:41.024Z,17.10
2019-01-16T18:08:37.282Z,13.53
2019-01-16T18:11:39.216Z,15.47
2019-01-16T18:14:20.254Z,15.47
2019-01-16T18:17:16.762Z,16.60
2019-01-16T18:20:09.068Z,16.00
2019-01-16T18:23:00.149Z,14.00
2019-01-16T18:25:49.941Z,14.73
2019-01-16T18:28:34.942Z,15.80
2019-01-16T18:31:15.115Z,18.77
2019-01-16T18:34:02.359Z,19.37
2019-01-16T18:36:38.875Z,16.73
2019-01-16T18:39:42.794Z,15.00
2019-01-16T18:42:28.114Z,16.60
2019-01-16T18:45:24.543Z,14.73
2019-01-16T18:48:31.392Z,19.37
2019-01-16T18:51:22.867Z,17.70
2019-01-16T18:54:24.907Z,20.60
2019-01-16T18:57:14.223Z,20.20
2019-01-16T18:59:53.071Z,19.77
2019-01-16T19:02:35.434Z,18.73
2019-01-16T19:05:21.892Z,17.30
2019-01-16T19:08:06.424Z,22.23
2019-01-16T19:11:12.978Z,15.50
2019-01-16T19:13:52.468Z,18.00
2019-01-16T19:16:39.558Z,19.57
2019-01-16T19:19:32.887Z,16.67
2019-01-16T19:22:18.679Z,19.07
2019-01-16T19:25:18.006Z,17.63
2019-01-16T19:27:56.999Z,15.77
2019-01-16T19:30:47.041Z,19.00
2019-01-16T19:33:32.978Z,17.00
2019-01-16T19:36:16.650Z,14.73
2019-01-16T19:39:02.240Z,14.03
2019-01-16T19:41:50.207Z,15.47
2019-01-16T19:44:43.703Z,15.20
2019-01-16T19:47:30.849Z,19.20
2019-01-16T19:50:10.623Z,15.37
2019-01-16T19:53:13.032Z,18.27
2019-01-16T19:56:01.611Z,13.97
2019-01-16T19:58:48.657Z,16.80
2019-01-16T20:01:34.383Z,17.50
2019-01-16T20:04:27.667Z,15.13
2019-01-16T20:10:12.500Z,16.40
2019-01-16T20:13:14.663Z,17.57
2019-01-16T20:15:53.743Z,19.10
2019-01-16T20:18:33.697Z,16.50
2019-01-16T20:21:30.000Z,18.50
2019-01-16T20:24:17.033Z,14.70
2019-01-16T20:27:03.154Z,18.33
2019-01-16T20:29:52.906Z,18.13
2019-01-16T20:32:49.123Z,22.77
2019-01-16T20:35:39.518Z,20.33
2019-01-16T20:38:29.185Z,16.93
2019-01-16T20:41:11.919Z,19.37
2019-01-16T20:43:50.570Z,17.63
2019-01-16T20:46:40.487Z,15.47
2019-01-16T20:49:33.843Z,15.50
2019-01-16T20:52:14.722Z,16.07
2019-01-16T20:55:07.407Z,14.67
2019-01-16T20:57:53.110Z,14.83
2019-01-16T21:00:35.154Z,17.70
2019-01-16T21:03:22.758Z,19.67
2019-01-16T21:06:10.097Z,14.67
2019-01-16T21:08:56.418Z,15.50
2019-01-16T21:11:43.867Z,13.70
2019-01-16T21:14:29.489Z,16.80
2019-01-16T21:17:14.858Z,15.00
2019-01-16T21:20:07.790Z,14.77
2019-01-16T21:22:53.558Z,17.23
2019-01-16T21:25:34.726Z,17.13
2019-01-16T21:28:18.401Z,13.50
2019-01-16T21:31:13.295Z,17.20
2019-01-16T21:34:03.457Z,18.40
2019-01-16T21:36:53.351Z,15.27
2019-01-16T21:39:40.429Z,14.30
2019-01-16T21:42:26.136Z,14.30
2019-01-16T21:45:28.346Z,14.93
2019-01-16T21:48:18.263Z,16.20
2019-01-16T21:50:55.907Z,18.40
2019-01-16T21:53:43.895Z,14.77
2019-01-16T21:56:29.320Z,17.10
2019-01-16T21:59:15.221Z,20.10
2019-01-16T22:02:00.879Z,15.87
2019-01-16T22:04:53.602Z,17.43
2019-01-16T22:07:39.494Z,39.27
2019-01-16T22:10:30.492Z,16.30
2019-01-16T22:13:17.536Z,15.67
2019-01-16T22:16:00.570Z,15.70
2019-01-16T22:18:54.146Z,14.77
2019-01-16T22:21:41.232Z,17.03
2019-01-16T22:24:14.819Z,19.10
2019-01-16T22:26:56.053Z,17.57
2019-01-16T22:29:42.293Z,17.67
2019-01-16T22:32:27.992Z,17.47
2019-01-16T22:35:33.152Z,16.03
2019-01-16T22:38:08.667Z,18.43
2019-01-16T22:41:05.046Z,20.63
2019-01-16T22:43:58.117Z,16.80
2019-01-16T22:46:58.993Z,17.20
2019-01-16T22:49:46.496Z,18.20
2019-01-16T22:52:45.380Z,17.77
2019-01-16T22:55:32.527Z,18.43
2019-01-16T22:58:22.457Z,21.33
2019-01-16T23:01:10.060Z,24.00
2019-01-16T23:04:02.196Z,20.77
2019-01-16T23:06:37.594Z,18.37
2019-01-16T23:09:27.048Z,23.70
2019-01-16T23:12:04.790Z,21.07
2019-01-16T23:15:10.082Z,26.27
2019-01-16T23:18:03.230Z,22.50
2019-01-16T23:20:53.252Z,21.80
2019-01-16T23:23:39.074Z,22.20
2019-01-16T23:26:12.650Z,19.60
2019-01-16T23:28:59.790Z,21.10
2019-01-16T23:31:49.639Z,26.03
2019-01-16T23:34:51.814Z,20.53
2019-01-16T23:37:27.978Z,23.40
2019-01-16T23:40:08.979Z,22.83
2019-01-16T23:43:02.018Z,22.07
2019-01-16T23:45:56.117Z,24.77
2019-01-16T23:48:31.777Z,23.77
2019-01-16T23:51:12.010Z,24.47
2019-01-16T23:54:14.052Z,24.43
2019-01-16T23:57:06.764Z,26.07
2019-01-16T23:59:55.328Z,23.50
